sensor_id;sensor_type;location;lat;lon;timestamp;temperature;humidity
58582;DHT22;44361;51.476;5.700;2023-05-07T00:01:39;14.10;99.90
58582;DHT22;44361;51.476;5.700;2023-05-07T00:04:05;14.10;99.90
58582;DHT22;44361;51.476;5.700;2023-05-07T00:06:31;14.10;99.90
58582;DHT22;44361;51.476;5.700;2023-05-07T00:08:58;14.10;99.90
58582;DHT22;44361;51.476;5.700;2023-05-07T00:11:24;14.10;99.90
58582;DHT22;44361;51.476;5.700;2023-05-07T00:13:51;14.10;99.90
58582;DHT22;44361;51.476;5.700;2023-05-07T00:16:16;14.20;99.90
58582;DHT22;44361;51.476;5.700;2023-05-07T00:18:42;14.20;99.90
58582;DHT22;44361;51.476;5.700;2023-05-07T00:21:07;14.20;99.90
58582;DHT22;44361;51.476;5.700;2023-05-07T00:23:33;14.20;99.90
58582;DHT22;44361;51.476;5.700;2023-05-07T00:25:58;14.20;99.90
58582;DHT22;44361;51.476;5.700;2023-05-07T00:28:24;14.30;99.90
58582;DHT22;44361;51.476;5.700;2023-05-07T00:30:49;14.20;99.90
58582;DHT22;44361;51.476;5.700;2023-05-07T00:33:15;14.20;99.90
58582;DHT22;44361;51.476;5.700;2023-05-07T00:35:41;14.20;99.90
58582;DHT22;44361;51.476;5.700;2023-05-07T00:38:07;14.20;99.90
58582;DHT22;44361;51.476;5.700;2023-05-07T00:40:32;14.20;99.90
58582;DHT22;44361;51.476;5.700;2023-05-07T00:42:58;14.10;99.90
58582;DHT22;44361;51.476;5.700;2023-05-07T00:45:28;14.10;99.90
58582;DHT22;44361;51.476;5.700;2023-05-07T00:47:56;14.10;99.90
58582;DHT22;44361;51.476;5.700;2023-05-07T00:50:22;14.00;99.90
58582;DHT22;44361;51.476;5.700;2023-05-07T00:52:48;14.00;99.90
58582;DHT22;44361;51.476;5.700;2023-05-07T00:55:14;14.00;99.90
58582;DHT22;44361;51.476;5.700;2023-05-07T00:57:41;13.90;99.90
58582;DHT22;44361;51.476;5.700;2023-05-07T01:00:08;13.90;99.90
58582;DHT22;44361;51.476;5.700;2023-05-07T01:02:38;13.80;99.90
58582;DHT22;44361;51.476;5.700;2023-05-07T01:05:05;13.80;99.90
58582;DHT22;44361;51.476;5.700;2023-05-07T01:07:33;13.80;99.90
58582;DHT22;44361;51.476;5.700;2023-05-07T01:10:00;13.70;99.90
58582;DHT22;44361;51.476;5.700;2023-05-07T01:12:26;13.80;99.90
58582;DHT22;44361;51.476;5.700;2023-05-07T01:14:53;13.70;99.90
58582;DHT22;44361;51.476;5.700;2023-05-07T01:17:19;13.70;99.90
58582;DHT22;44361;51.476;5.700;2023-05-07T01:19:44;13.80;99.90
58582;DHT22;44361;51.476;5.700;2023-05-07T01:22:10;13.80;99.90
58582;DHT22;44361;51.476;5.700;2023-05-07T01:24:40;13.90;99.90
58582;DHT22;44361;51.476;5.700;2023-05-07T01:27:06;13.90;99.90
58582;DHT22;44361;51.476;5.700;2023-05-07T01:29:31;13.90;99.90
58582;DHT22;44361;51.476;5.700;2023-05-07T01:31:59;13.90;99.90
58582;DHT22;44361;51.476;5.700;2023-05-07T01:34:25;13.90;99.90
58582;DHT22;44361;51.476;5.700;2023-05-07T01:36:53;13.90;99.90
58582;DHT22;44361;51.476;5.700;2023-05-07T01:39:19;13.90;99.90
58582;DHT22;44361;51.476;5.700;2023-05-07T01:41:45;13.90;99.90
58582;DHT22;44361;51.476;5.700;2023-05-07T01:44:12;13.90;99.90
58582;DHT22;44361;51.476;5.700;2023-05-07T01:46:38;13.90;99.90
58582;DHT22;44361;51.476;5.700;2023-05-07T01:49:04;13.90;99.90
58582;DHT22;44361;51.476;5.700;2023-05-07T01:51:30;13.80;99.90
58582;DHT22;44361;51.476;5.700;2023-05-07T01:53:56;13.80;99.90
58582;DHT22;44361;51.476;5.700;2023-05-07T01:56:24;13.80;99.90
58582;DHT22;44361;51.476;5.700;2023-05-07T01:58:50;13.80;99.90
58582;DHT22;44361;51.476;5.700;2023-05-07T02:01:17;13.80;99.90
58582;DHT22;44361;51.476;5.700;2023-05-07T02:03:43;13.80;99.90
58582;DHT22;44361;51.476;5.700;2023-05-07T02:06:09;13.80;99.90
58582;DHT22;44361;51.476;5.700;2023-05-07T02:08:34;13.80;99.90
58582;DHT22;44361;51.476;5.700;2023-05-07T02:11:00;13.80;99.90
58582;DHT22;44361;51.476;5.700;2023-05-07T02:13:31;13.70;99.90
58582;DHT22;44361;51.476;5.700;2023-05-07T02:15:57;13.80;99.90
58582;DHT22;44361;51.476;5.700;2023-05-07T02:18:23;13.80;99.90
58582;DHT22;44361;51.476;5.700;2023-05-07T02:20:48;13.80;99.90
58582;DHT22;44361;51.476;5.700;2023-05-07T02:23:14;13.80;99.90
58582;DHT22;44361;51.476;5.700;2023-05-07T02:25:39;13.70;99.90
58582;DHT22;44361;51.476;5.700;2023-05-07T02:28:05;13.80;99.90
58582;DHT22;44361;51.476;5.700;2023-05-07T02:30:31;13.80;99.90
58582;DHT22;44361;51.476;5.700;2023-05-07T02:32:56;13.70;99.90
58582;DHT22;44361;51.476;5.700;2023-05-07T02:35:23;13.70;99.90
58582;DHT22;44361;51.476;5.700;2023-05-07T02:37:49;13.70;99.90
58582;DHT22;44361;51.476;5.700;2023-05-07T02:40:14;13.70;99.90
58582;DHT22;44361;51.476;5.700;2023-05-07T02:42:40;13.70;99.90
58582;DHT22;44361;51.476;5.700;2023-05-07T02:45:06;13.60;99.90
58582;DHT22;44361;51.476;5.700;2023-05-07T02:47:31;13.60;99.90
58582;DHT22;44361;51.476;5.700;2023-05-07T02:49:57;13.60;99.90
58582;DHT22;44361;51.476;5.700;2023-05-07T02:52:22;13.70;99.90
58582;DHT22;44361;51.476;5.700;2023-05-07T02:54:48;13.70;99.90
58582;DHT22;44361;51.476;5.700;2023-05-07T02:57:14;13.70;99.90
58582;DHT22;44361;51.476;5.700;2023-05-07T02:59:40;13.70;99.90
58582;DHT22;44361;51.476;5.700;2023-05-07T03:02:05;13.70;99.90
58582;DHT22;44361;51.476;5.700;2023-05-07T03:04:31;13.70;99.90
58582;DHT22;44361;51.476;5.700;2023-05-07T03:06:56;13.70;99.90
58582;DHT22;44361;51.476;5.700;2023-05-07T03:09:21;13.70;99.90
58582;DHT22;44361;51.476;5.700;2023-05-07T03:11:47;13.70;99.90
58582;DHT22;44361;51.476;5.700;2023-05-07T03:14:13;13.70;99.90
58582;DHT22;44361;51.476;5.700;2023-05-07T03:16:38;13.70;99.90
58582;DHT22;44361;51.476;5.700;2023-05-07T03:19:04;13.70;99.90
58582;DHT22;44361;51.476;5.700;2023-05-07T03:21:30;13.70;99.90
58582;DHT22;44361;51.476;5.700;2023-05-07T03:23:56;13.70;99.90
58582;DHT22;44361;51.476;5.700;2023-05-07T03:26:21;13.70;99.90
58582;DHT22;44361;51.476;5.700;2023-05-07T03:28:47;13.70;99.90
58582;DHT22;44361;51.476;5.700;2023-05-07T03:31:13;13.70;99.90
58582;DHT22;44361;51.476;5.700;2023-05-07T03:33:52;13.70;99.90
58582;DHT22;44361;51.476;5.700;2023-05-07T03:36:18;13.60;99.90
58582;DHT22;44361;51.476;5.700;2023-05-07T03:38:44;13.70;99.90
58582;DHT22;44361;51.476;5.700;2023-05-07T03:41:09;13.70;99.90
58582;DHT22;44361;51.476;5.700;2023-05-07T03:43:35;13.70;99.90
58582;DHT22;44361;51.476;5.700;2023-05-07T03:46:01;13.60;99.90
58582;DHT22;44361;51.476;5.700;2023-05-07T03:48:27;13.60;99.90
58582;DHT22;44361;51.476;5.700;2023-05-07T03:50:53;13.70;99.90
58582;DHT22;44361;51.476;5.700;2023-05-07T03:53:18;13.60;99.90
58582;DHT22;44361;51.476;5.700;2023-05-07T03:55:44;13.60;99.90
58582;DHT22;44361;51.476;5.700;2023-05-07T03:58:09;13.60;99.90
58582;DHT22;44361;51.476;5.700;2023-05-07T04:00:35;13.60;99.90
58582;DHT22;44361;51.476;5.700;2023-05-07T04:03:04;13.60;99.90
58582;DHT22;44361;51.476;5.700;2023-05-07T04:05:30;13.60;99.90
58582;DHT22;44361;51.476;5.700;2023-05-07T04:07:57;13.60;99.90
58582;DHT22;44361;51.476;5.700;2023-05-07T04:10:22;13.70;99.90
58582;DHT22;44361;51.476;5.700;2023-05-07T04:12:48;13.70;99.90
58582;DHT22;44361;51.476;5.700;2023-05-07T04:15:14;13.60;99.90
58582;DHT22;44361;51.476;5.700;2023-05-07T04:17:39;13.60;99.90
58582;DHT22;44361;51.476;5.700;2023-05-07T04:20:10;13.70;99.90
58582;DHT22;44361;51.476;5.700;2023-05-07T04:22:36;13.70;99.90
58582;DHT22;44361;51.476;5.700;2023-05-07T04:25:02;13.70;99.90
58582;DHT22;44361;51.476;5.700;2023-05-07T04:27:28;13.70;99.90
58582;DHT22;44361;51.476;5.700;2023-05-07T04:29:53;13.80;99.90
58582;DHT22;44361;51.476;5.700;2023-05-07T04:32:21;13.80;99.90
58582;DHT22;44361;51.476;5.700;2023-05-07T04:34:47;13.80;99.90
58582;DHT22;44361;51.476;5.700;2023-05-07T04:37:13;13.80;99.90
58582;DHT22;44361;51.476;5.700;2023-05-07T04:39:38;13.90;99.90
58582;DHT22;44361;51.476;5.700;2023-05-07T04:42:04;13.90;99.90
58582;DHT22;44361;51.476;5.700;2023-05-07T04:44:29;14.00;99.90
58582;DHT22;44361;51.476;5.700;2023-05-07T04:46:56;14.00;99.90
58582;DHT22;44361;51.476;5.700;2023-05-07T04:49:22;14.00;99.90
58582;DHT22;44361;51.476;5.700;2023-05-07T04:51:47;14.10;99.90
58582;DHT22;44361;51.476;5.700;2023-05-07T04:54:13;14.10;99.90
58582;DHT22;44361;51.476;5.700;2023-05-07T04:56:38;14.20;99.90
58582;DHT22;44361;51.476;5.700;2023-05-07T04:59:04;14.20;99.90
58582;DHT22;44361;51.476;5.700;2023-05-07T05:01:30;14.30;99.90
58582;DHT22;44361;51.476;5.700;2023-05-07T05:03:56;14.30;99.90
58582;DHT22;44361;51.476;5.700;2023-05-07T05:06:21;14.40;99.90
58582;DHT22;44361;51.476;5.700;2023-05-07T05:08:47;14.50;99.90
58582;DHT22;44361;51.476;5.700;2023-05-07T05:11:13;14.50;99.90
58582;DHT22;44361;51.476;5.700;2023-05-07T05:13:38;14.60;99.90
58582;DHT22;44361;51.476;5.700;2023-05-07T05:16:04;14.60;99.90
58582;DHT22;44361;51.476;5.700;2023-05-07T05:18:30;14.60;99.90
58582;DHT22;44361;51.476;5.700;2023-05-07T05:20:55;14.60;99.90
58582;DHT22;44361;51.476;5.700;2023-05-07T05:23:21;14.60;99.90
58582;DHT22;44361;51.476;5.700;2023-05-07T05:25:46;14.60;99.90
58582;DHT22;44361;51.476;5.700;2023-05-07T05:28:12;14.60;99.90
58582;DHT22;44361;51.476;5.700;2023-05-07T05:30:38;14.60;99.90
58582;DHT22;44361;51.476;5.700;2023-05-07T05:33:04;14.60;99.90
58582;DHT22;44361;51.476;5.700;2023-05-07T05:35:29;14.60;99.90
58582;DHT22;44361;51.476;5.700;2023-05-07T05:37:55;14.70;99.90
58582;DHT22;44361;51.476;5.700;2023-05-07T05:40:21;14.80;99.90
58582;DHT22;44361;51.476;5.700;2023-05-07T05:42:46;14.80;99.90
58582;DHT22;44361;51.476;5.700;2023-05-07T05:45:12;14.80;99.90
58582;DHT22;44361;51.476;5.700;2023-05-07T05:47:38;14.90;99.90
58582;DHT22;44361;51.476;5.700;2023-05-07T05:50:05;15.00;99.90
58582;DHT22;44361;51.476;5.700;2023-05-07T05:52:31;15.10;99.90
58582;DHT22;44361;51.476;5.700;2023-05-07T05:54:57;15.20;99.90
58582;DHT22;44361;51.476;5.700;2023-05-07T05:57:22;15.30;99.90
58582;DHT22;44361;51.476;5.700;2023-05-07T05:59:48;15.40;99.90
58582;DHT22;44361;51.476;5.700;2023-05-07T06:02:13;15.40;99.90
58582;DHT22;44361;51.476;5.700;2023-05-07T06:04:39;15.50;99.90
58582;DHT22;44361;51.476;5.700;2023-05-07T06:07:05;15.50;99.90
58582;DHT22;44361;51.476;5.700;2023-05-07T06:09:30;15.60;99.90
58582;DHT22;44361;51.476;5.700;2023-05-07T06:11:56;15.60;99.90
58582;DHT22;44361;51.476;5.700;2023-05-07T06:14:21;15.50;99.90
58582;DHT22;44361;51.476;5.700;2023-05-07T06:16:47;15.60;99.90
58582;DHT22;44361;51.476;5.700;2023-05-07T06:19:12;15.70;99.90
58582;DHT22;44361;51.476;5.700;2023-05-07T06:21:39;15.70;99.90
58582;DHT22;44361;51.476;5.700;2023-05-07T06:24:05;15.70;99.90
58582;DHT22;44361;51.476;5.700;2023-05-07T06:26:31;15.90;99.90
58582;DHT22;44361;51.476;5.700;2023-05-07T06:28:56;15.90;99.90
58582;DHT22;44361;51.476;5.700;2023-05-07T06:31:22;16.10;99.90
58582;DHT22;44361;51.476;5.700;2023-05-07T06:33:48;16.20;99.90
58582;DHT22;44361;51.476;5.700;2023-05-07T06:36:14;16.40;99.90
58582;DHT22;44361;51.476;5.700;2023-05-07T06:38:40;16.60;99.90
58582;DHT22;44361;51.476;5.700;2023-05-07T06:41:06;16.70;99.90
58582;DHT22;44361;51.476;5.700;2023-05-07T06:43:32;16.60;99.90
58582;DHT22;44361;51.476;5.700;2023-05-07T06:45:57;16.70;99.90
58582;DHT22;44361;51.476;5.700;2023-05-07T06:48:23;16.60;99.90
58582;DHT22;44361;51.476;5.700;2023-05-07T06:50:48;16.60;99.90
58582;DHT22;44361;51.476;5.700;2023-05-07T06:53:14;16.70;99.90
58582;DHT22;44361;51.476;5.700;2023-05-07T06:55:39;16.80;99.90
58582;DHT22;44361;51.476;5.700;2023-05-07T06:58:06;16.80;99.90
58582;DHT22;44361;51.476;5.700;2023-05-07T07:00:31;16.90;99.90
58582;DHT22;44361;51.476;5.700;2023-05-07T07:02:57;16.90;99.90
58582;DHT22;44361;51.476;5.700;2023-05-07T07:05:22;17.00;99.90
58582;DHT22;44361;51.476;5.700;2023-05-07T07:07:48;17.10;99.90
58582;DHT22;44361;51.476;5.700;2023-05-07T07:10:19;17.10;99.90
58582;DHT22;44361;51.476;5.700;2023-05-07T07:12:45;17.10;99.90
58582;DHT22;44361;51.476;5.700;2023-05-07T07:15:10;17.30;99.90
58582;DHT22;44361;51.476;5.700;2023-05-07T07:17:36;17.50;99.90
58582;DHT22;44361;51.476;5.700;2023-05-07T07:20:02;17.60;99.90
58582;DHT22;44361;51.476;5.700;2023-05-07T07:22:28;17.60;99.90
58582;DHT22;44361;51.476;5.700;2023-05-07T07:24:54;17.60;99.90
58582;DHT22;44361;51.476;5.700;2023-05-07T07:27:19;17.60;99.90
58582;DHT22;44361;51.476;5.700;2023-05-07T07:29:45;17.60;99.90
58582;DHT22;44361;51.476;5.700;2023-05-07T07:32:10;17.50;99.90
58582;DHT22;44361;51.476;5.700;2023-05-07T07:34:36;17.40;99.90
58582;DHT22;44361;51.476;5.700;2023-05-07T07:37:01;17.30;99.90
58582;DHT22;44361;51.476;5.700;2023-05-07T07:39:31;17.30;99.90
58582;DHT22;44361;51.476;5.700;2023-05-07T07:41:56;17.40;99.90
58582;DHT22;44361;51.476;5.700;2023-05-07T07:44:22;17.40;99.90
58582;DHT22;44361;51.476;5.700;2023-05-07T07:46:47;17.30;99.90
58582;DHT22;44361;51.476;5.700;2023-05-07T07:49:13;17.30;99.90
58582;DHT22;44361;51.476;5.700;2023-05-07T07:51:39;17.20;99.90
58582;DHT22;44361;51.476;5.700;2023-05-07T07:54:05;17.30;99.90
58582;DHT22;44361;51.476;5.700;2023-05-07T07:56:32;17.40;99.90
58582;DHT22;44361;51.476;5.700;2023-05-07T07:58:58;17.40;99.90
58582;DHT22;44361;51.476;5.700;2023-05-07T08:01:24;17.50;99.90
58582;DHT22;44361;51.476;5.700;2023-05-07T08:03:50;17.60;99.90
58582;DHT22;44361;51.476;5.700;2023-05-07T08:06:15;17.70;99.90
58582;DHT22;44361;51.476;5.700;2023-05-07T08:08:41;17.90;99.90
58582;DHT22;44361;51.476;5.700;2023-05-07T08:11:06;18.00;99.90
58582;DHT22;44361;51.476;5.700;2023-05-07T08:13:32;18.30;99.90
58582;DHT22;44361;51.476;5.700;2023-05-07T08:15:57;18.60;99.90
58582;DHT22;44361;51.476;5.700;2023-05-07T08:18:24;18.80;99.90
58582;DHT22;44361;51.476;5.700;2023-05-07T08:20:50;18.80;99.90
58582;DHT22;44361;51.476;5.700;2023-05-07T08:23:16;18.90;99.90
58582;DHT22;44361;51.476;5.700;2023-05-07T08:25:42;19.00;99.90
58582;DHT22;44361;51.476;5.700;2023-05-07T08:28:08;18.90;99.90
58582;DHT22;44361;51.476;5.700;2023-05-07T08:30:33;19.00;99.90
58582;DHT22;44361;51.476;5.700;2023-05-07T08:33:00;19.00;99.90
58582;DHT22;44361;51.476;5.700;2023-05-07T08:35:25;18.90;99.90
58582;DHT22;44361;51.476;5.700;2023-05-07T08:37:52;19.00;99.90
58582;DHT22;44361;51.476;5.700;2023-05-07T08:40:18;19.00;99.90
58582;DHT22;44361;51.476;5.700;2023-05-07T08:42:44;18.90;99.90
58582;DHT22;44361;51.476;5.700;2023-05-07T08:45:10;19.10;99.90
58582;DHT22;44361;51.476;5.700;2023-05-07T08:48:03;19.00;99.90
58582;DHT22;44361;51.476;5.700;2023-05-07T08:50:30;19.00;99.90
58582;DHT22;44361;51.476;5.700;2023-05-07T08:52:56;19.20;99.90
58582;DHT22;44361;51.476;5.700;2023-05-07T08:55:22;19.50;99.90
58582;DHT22;44361;51.476;5.700;2023-05-07T08:57:50;19.90;99.90
58582;DHT22;44361;51.476;5.700;2023-05-07T09:00:17;20.30;99.90
58582;DHT22;44361;51.476;5.700;2023-05-07T09:02:43;20.40;99.90
58582;DHT22;44361;51.476;5.700;2023-05-07T09:05:09;20.40;99.90
58582;DHT22;44361;51.476;5.700;2023-05-07T09:07:34;20.50;99.90
58582;DHT22;44361;51.476;5.700;2023-05-07T09:10:04;20.50;99.90
58582;DHT22;44361;51.476;5.700;2023-05-07T09:12:30;20.60;99.90
58582;DHT22;44361;51.476;5.700;2023-05-07T09:14:56;20.80;99.90
58582;DHT22;44361;51.476;5.700;2023-05-07T09:17:21;21.00;99.90
58582;DHT22;44361;51.476;5.700;2023-05-07T09:19:47;21.00;99.90
58582;DHT22;44361;51.476;5.700;2023-05-07T09:22:13;21.20;99.90
58582;DHT22;44361;51.476;5.700;2023-05-07T09:24:38;21.10;99.90
58582;DHT22;44361;51.476;5.700;2023-05-07T09:27:05;20.90;99.90
58582;DHT22;44361;51.476;5.700;2023-05-07T09:29:31;20.70;99.90
58582;DHT22;44361;51.476;5.700;2023-05-07T09:32:06;20.60;99.90
58582;DHT22;44361;51.476;5.700;2023-05-07T09:34:33;20.70;99.90
58582;DHT22;44361;51.476;5.700;2023-05-07T09:37:01;20.70;99.90
58582;DHT22;44361;51.476;5.700;2023-05-07T09:39:26;20.50;99.90
58582;DHT22;44361;51.476;5.700;2023-05-07T09:42:03;20.60;99.90
58582;DHT22;44361;51.476;5.700;2023-05-07T09:44:29;20.70;99.90
58582;DHT22;44361;51.476;5.700;2023-05-07T09:46:57;20.60;99.90
58582;DHT22;44361;51.476;5.700;2023-05-07T09:49:27;20.70;99.90
58582;DHT22;44361;51.476;5.700;2023-05-07T09:51:55;20.60;99.90
58582;DHT22;44361;51.476;5.700;2023-05-07T09:54:22;20.60;99.90
58582;DHT22;44361;51.476;5.700;2023-05-07T09:56:52;20.80;99.90
58582;DHT22;44361;51.476;5.700;2023-05-07T09:59:18;20.90;99.90
58582;DHT22;44361;51.476;5.700;2023-05-07T10:01:46;21.20;99.90
58582;DHT22;44361;51.476;5.700;2023-05-07T10:04:12;21.10;99.90
58582;DHT22;44361;51.476;5.700;2023-05-07T10:06:37;21.20;99.90
58582;DHT22;44361;51.476;5.700;2023-05-07T10:09:04;21.20;99.90
58582;DHT22;44361;51.476;5.700;2023-05-07T10:11:33;21.40;99.90
58582;DHT22;44361;51.476;5.700;2023-05-07T10:14:00;21.60;99.90
58582;DHT22;44361;51.476;5.700;2023-05-07T10:16:37;21.70;99.90
58582;DHT22;44361;51.476;5.700;2023-05-07T10:19:03;22.00;99.90
58582;DHT22;44361;51.476;5.700;2023-05-07T10:21:30;22.00;99.90
58582;DHT22;44361;51.476;5.700;2023-05-07T10:24:04;21.90;99.90
58582;DHT22;44361;51.476;5.700;2023-05-07T10:26:36;22.10;99.90
58582;DHT22;44361;51.476;5.700;2023-05-07T10:29:07;21.90;99.90
58582;DHT22;44361;51.476;5.700;2023-05-07T10:34:10;22.00;99.90
58582;DHT22;44361;51.476;5.700;2023-05-07T10:36:37;22.30;99.90
58582;DHT22;44361;51.476;5.700;2023-05-07T10:39:03;22.50;99.90
58582;DHT22;44361;51.476;5.700;2023-05-07T10:41:30;22.90;99.90
58582;DHT22;44361;51.476;5.700;2023-05-07T10:43:55;22.70;99.90
58582;DHT22;44361;51.476;5.700;2023-05-07T10:46:22;22.60;99.90
58582;DHT22;44361;51.476;5.700;2023-05-07T10:51:26;22.80;99.80
58582;DHT22;44361;51.476;5.700;2023-05-07T10:56:40;23.00;99.40
58582;DHT22;44361;51.476;5.700;2023-05-07T10:59:31;23.10;99.60
58582;DHT22;44361;51.476;5.700;2023-05-07T11:01:58;23.20;98.70
58582;DHT22;44361;51.476;5.700;2023-05-07T11:04:24;23.20;98.50
58582;DHT22;44361;51.476;5.700;2023-05-07T11:09:55;23.70;98.20
58582;DHT22;44361;51.476;5.700;2023-05-07T11:15:06;23.40;97.70
58582;DHT22;44361;51.476;5.700;2023-05-07T11:17:33;23.20;98.30
58582;DHT22;44361;51.476;5.700;2023-05-07T11:20:01;23.00;97.90
58582;DHT22;44361;51.476;5.700;2023-05-07T11:25:00;23.10;99.20
58582;DHT22;44361;51.476;5.700;2023-05-07T11:27:26;23.00;98.30
58582;DHT22;44361;51.476;5.700;2023-05-07T11:29:52;22.90;97.20
58582;DHT22;44361;51.476;5.700;2023-05-07T11:32:31;22.90;97.60
58582;DHT22;44361;51.476;5.700;2023-05-07T11:34:58;23.20;98.30
58582;DHT22;44361;51.476;5.700;2023-05-07T11:37:26;23.10;96.10
58582;DHT22;44361;51.476;5.700;2023-05-07T11:40:03;22.90;96.20
58582;DHT22;44361;51.476;5.700;2023-05-07T11:42:34;22.70;98.30
58582;DHT22;44361;51.476;5.700;2023-05-07T11:45:00;22.70;96.20
58582;DHT22;44361;51.476;5.700;2023-05-07T11:47:30;22.60;96.30
58582;DHT22;44361;51.476;5.700;2023-05-07T11:49:55;22.80;97.00
58582;DHT22;44361;51.476;5.700;2023-05-07T11:52:23;22.60;96.50
58582;DHT22;44361;51.476;5.700;2023-05-07T11:54:54;22.70;96.00
58582;DHT22;44361;51.476;5.700;2023-05-07T11:57:23;22.50;95.10
58582;DHT22;44361;51.476;5.700;2023-05-07T11:59:55;22.60;95.70
58582;DHT22;44361;51.476;5.700;2023-05-07T12:02:21;22.60;97.20
58582;DHT22;44361;51.476;5.700;2023-05-07T12:04:47;22.40;96.50
58582;DHT22;44361;51.476;5.700;2023-05-07T12:07:14;22.30;95.00
58582;DHT22;44361;51.476;5.700;2023-05-07T12:09:40;22.40;96.70
58582;DHT22;44361;51.476;5.700;2023-05-07T12:12:06;22.50;95.50
58582;DHT22;44361;51.476;5.700;2023-05-07T12:14:32;22.50;95.20
58582;DHT22;44361;51.476;5.700;2023-05-07T12:17:00;22.60;96.00
58582;DHT22;44361;51.476;5.700;2023-05-07T12:19:29;22.70;97.60
58582;DHT22;44361;51.476;5.700;2023-05-07T12:21:55;22.60;96.80
58582;DHT22;44361;51.476;5.700;2023-05-07T12:24:21;22.50;95.90
58582;DHT22;44361;51.476;5.700;2023-05-07T12:26:48;22.40;95.30
58582;DHT22;44361;51.476;5.700;2023-05-07T12:29:13;22.40;95.70
58582;DHT22;44361;51.476;5.700;2023-05-07T12:31:42;22.50;95.10
58582;DHT22;44361;51.476;5.700;2023-05-07T12:34:10;22.50;96.00
58582;DHT22;44361;51.476;5.700;2023-05-07T12:36:40;22.60;95.50
58582;DHT22;44361;51.476;5.700;2023-05-07T12:39:06;22.30;95.80
58582;DHT22;44361;51.476;5.700;2023-05-07T12:41:51;22.10;95.90
58582;DHT22;44361;51.476;5.700;2023-05-07T12:44:17;21.90;96.10
58582;DHT22;44361;51.476;5.700;2023-05-07T12:46:43;21.70;97.40
58582;DHT22;44361;51.476;5.700;2023-05-07T12:49:08;21.50;98.00
58582;DHT22;44361;51.476;5.700;2023-05-07T12:51:35;21.50;98.20
58582;DHT22;44361;51.476;5.700;2023-05-07T12:54:01;21.30;97.90
58582;DHT22;44361;51.476;5.700;2023-05-07T12:56:26;21.20;98.90
58582;DHT22;44361;51.476;5.700;2023-05-07T12:58:57;21.20;99.50
58582;DHT22;44361;51.476;5.700;2023-05-07T13:01:29;21.10;99.90
58582;DHT22;44361;51.476;5.700;2023-05-07T13:03:55;21.10;99.60
58582;DHT22;44361;51.476;5.700;2023-05-07T13:06:21;21.00;99.10
58582;DHT22;44361;51.476;5.700;2023-05-07T13:08:46;20.80;99.00
58582;DHT22;44361;51.476;5.700;2023-05-07T13:11:12;20.00;99.20
58582;DHT22;44361;51.476;5.700;2023-05-07T13:13:40;19.40;99.90
58582;DHT22;44361;51.476;5.700;2023-05-07T13:16:07;18.90;99.90
58582;DHT22;44361;51.476;5.700;2023-05-07T13:18:33;18.70;99.90
58582;DHT22;44361;51.476;5.700;2023-05-07T13:21:00;18.40;99.90
58582;DHT22;44361;51.476;5.700;2023-05-07T13:23:26;18.20;99.90
58582;DHT22;44361;51.476;5.700;2023-05-07T13:25:51;17.80;99.90
58582;DHT22;44361;51.476;5.700;2023-05-07T13:28:21;17.30;99.90
58582;DHT22;44361;51.476;5.700;2023-05-07T13:30:47;17.00;99.90
58582;DHT22;44361;51.476;5.700;2023-05-07T13:33:13;16.60;99.90
58582;DHT22;44361;51.476;5.700;2023-05-07T13:35:39;16.40;99.90
58582;DHT22;44361;51.476;5.700;2023-05-07T13:38:05;16.20;99.90
58582;DHT22;44361;51.476;5.700;2023-05-07T13:40:31;16.10;99.90
58582;DHT22;44361;51.476;5.700;2023-05-07T13:43:00;16.10;99.90
58582;DHT22;44361;51.476;5.700;2023-05-07T13:45:28;16.00;99.90
58582;DHT22;44361;51.476;5.700;2023-05-07T13:47:54;15.80;99.90
58582;DHT22;44361;51.476;5.700;2023-05-07T13:50:20;15.80;99.90
58582;DHT22;44361;51.476;5.700;2023-05-07T13:52:46;15.70;99.90
58582;DHT22;44361;51.476;5.700;2023-05-07T13:55:19;15.60;99.90
58582;DHT22;44361;51.476;5.700;2023-05-07T13:57:46;15.50;99.90
58582;DHT22;44361;51.476;5.700;2023-05-07T14:00:12;15.50;99.90
58582;DHT22;44361;51.476;5.700;2023-05-07T14:02:38;15.70;99.90
58582;DHT22;44361;51.476;5.700;2023-05-07T14:05:04;15.70;99.90
58582;DHT22;44361;51.476;5.700;2023-05-07T14:07:30;15.80;99.90
58582;DHT22;44361;51.476;5.700;2023-05-07T14:09:56;15.80;99.90
58582;DHT22;44361;51.476;5.700;2023-05-07T14:12:22;15.80;99.90
58582;DHT22;44361;51.476;5.700;2023-05-07T14:14:47;15.80;99.90
58582;DHT22;44361;51.476;5.700;2023-05-07T14:17:16;15.70;99.90
58582;DHT22;44361;51.476;5.700;2023-05-07T14:19:42;15.70;99.90
58582;DHT22;44361;51.476;5.700;2023-05-07T14:22:08;15.60;99.90
58582;DHT22;44361;51.476;5.700;2023-05-07T14:24:33;15.70;99.90
58582;DHT22;44361;51.476;5.700;2023-05-07T14:26:59;15.60;99.90
58582;DHT22;44361;51.476;5.700;2023-05-07T14:29:25;15.60;99.90
58582;DHT22;44361;51.476;5.700;2023-05-07T14:31:51;15.60;99.90
58582;DHT22;44361;51.476;5.700;2023-05-07T14:34:16;15.50;99.90
58582;DHT22;44361;51.476;5.700;2023-05-07T14:36:42;15.50;99.90
58582;DHT22;44361;51.476;5.700;2023-05-07T14:39:09;15.50;99.90
58582;DHT22;44361;51.476;5.700;2023-05-07T14:41:34;15.60;99.90
58582;DHT22;44361;51.476;5.700;2023-05-07T14:44:00;15.60;99.90
58582;DHT22;44361;51.476;5.700;2023-05-07T14:46:26;15.80;99.90
58582;DHT22;44361;51.476;5.700;2023-05-07T14:48:52;16.00;99.90
58582;DHT22;44361;51.476;5.700;2023-05-07T14:51:18;16.00;99.90
58582;DHT22;44361;51.476;5.700;2023-05-07T14:53:44;16.20;99.90
58582;DHT22;44361;51.476;5.700;2023-05-07T14:56:09;16.30;99.90
58582;DHT22;44361;51.476;5.700;2023-05-07T14:58:35;16.40;99.90
58582;DHT22;44361;51.476;5.700;2023-05-07T15:01:01;16.40;99.90
58582;DHT22;44361;51.476;5.700;2023-05-07T15:03:27;16.50;99.90
58582;DHT22;44361;51.476;5.700;2023-05-07T15:05:52;16.70;99.90
58582;DHT22;44361;51.476;5.700;2023-05-07T15:08:18;17.00;99.90
58582;DHT22;44361;51.476;5.700;2023-05-07T15:10:44;16.80;99.90
58582;DHT22;44361;51.476;5.700;2023-05-07T15:13:10;17.10;99.90
58582;DHT22;44361;51.476;5.700;2023-05-07T15:15:36;17.10;99.90
58582;DHT22;44361;51.476;5.700;2023-05-07T15:18:02;17.00;99.90
58582;DHT22;44361;51.476;5.700;2023-05-07T15:20:28;17.20;99.90
58582;DHT22;44361;51.476;5.700;2023-05-07T15:22:54;17.40;99.90
58582;DHT22;44361;51.476;5.700;2023-05-07T15:25:20;17.40;99.90
58582;DHT22;44361;51.476;5.700;2023-05-07T15:27:46;17.60;99.90
58582;DHT22;44361;51.476;5.700;2023-05-07T15:30:12;17.50;99.90
58582;DHT22;44361;51.476;5.700;2023-05-07T15:32:37;17.60;99.90
58582;DHT22;44361;51.476;5.700;2023-05-07T15:35:04;17.70;99.90
58582;DHT22;44361;51.476;5.700;2023-05-07T15:37:33;17.80;99.90
58582;DHT22;44361;51.476;5.700;2023-05-07T15:39:59;18.00;99.90
58582;DHT22;44361;51.476;5.700;2023-05-07T15:42:24;18.10;99.90